0VA8 weather

Jayarz Airport
Mannboro, Virginia, United States

Public forecast

Using degrees Fahrenheit for public forecast. Weather courtesy of forecast.io.

METAR (pilot weather report)

Closest report is Chesterfield County Airport, 14.6 nm (27.1 km) ENE. Retrieved 2019/03/22 06:56 UTC (1 hour ago):

KFCI 220656Z AUTO 26005KT 10SM OVC100 07/04 A2965 RMK AO2 SLP058 T00670044

TAF (pilot weather forecast)

Closest forecast is Richmond International Airport, 26.1 nm (48.3 km) ENE. Retrieved 2019/03/22 06:46 UTC (1 hour ago):

TAF KRIC 220544Z 2206/2306 28009G15KT P6SM SCT060 OVC100 FM220900 28009KT P6SM SKC FM221900 27017G30KT P6SM BKN050 FM230000 30014G23KT P6SM FEW250